createdAt,value
2017-11-23T13:51:38.397Z,4.57
2017-11-23T13:54:08.793Z,3.70
2017-11-23T13:56:44.418Z,3.93
2017-11-23T13:59:13.093Z,4.30
2017-11-23T14:01:41.801Z,5.30
2017-11-23T14:04:10.525Z,3.97
2017-11-23T14:06:38.911Z,3.97
2017-11-23T14:09:07.606Z,3.47
2017-11-23T14:11:36.269Z,3.50
2017-11-23T14:14:04.963Z,3.87
2017-11-23T14:16:33.593Z,4.47
2017-11-23T14:19:02.269Z,3.87
2017-11-23T14:21:30.931Z,3.53
2017-11-23T14:24:00.391Z,3.40
2017-11-23T14:26:29.059Z,4.10
2017-11-23T14:28:57.707Z,4.00
2017-11-23T14:31:26.391Z,4.17
2017-11-23T14:33:55.045Z,4.40
2017-11-23T14:36:23.732Z,4.80
2017-11-23T14:38:52.375Z,4.13
2017-11-23T14:41:21.061Z,4.30
2017-11-23T14:43:49.836Z,4.20
2017-11-23T14:46:18.484Z,4.03
2017-11-23T14:48:47.182Z,4.90
2017-11-23T14:51:15.856Z,4.50
2017-11-23T14:53:44.564Z,3.60
2017-11-23T14:56:13.220Z,3.87
2017-11-23T14:58:41.843Z,4.20
2017-11-23T15:01:10.510Z,4.93
2017-11-23T15:03:39.226Z,3.60
2017-11-23T15:06:07.934Z,3.63
2017-11-23T15:08:36.581Z,3.67
2017-11-23T15:11:05.265Z,3.57
2017-11-23T15:13:34.541Z,4.53
2017-11-23T15:16:03.173Z,3.73
2017-11-23T15:18:31.873Z,4.10
2017-11-23T15:21:00.514Z,3.97
2017-11-23T15:23:29.232Z,3.60
2017-11-23T15:25:57.864Z,4.37
2017-11-23T15:28:26.521Z,3.50
2017-11-23T15:30:55.199Z,3.33
2017-11-23T15:33:26.297Z,3.90
2017-11-23T15:35:54.945Z,3.60
2017-11-23T15:38:23.597Z,4.10
2017-11-23T15:40:52.281Z,4.37
2017-11-23T15:43:23.961Z,4.20
2017-11-23T15:45:52.652Z,3.70
2017-11-23T15:48:21.312Z,3.97
2017-11-23T15:50:49.980Z,3.70
2017-11-23T15:53:19.356Z,3.80
2017-11-23T15:55:48.013Z,3.73
2017-11-23T15:58:18.468Z,5.10
2017-11-23T16:00:47.836Z,4.10
2017-11-23T16:03:16.521Z,4.40
2017-11-23T16:05:45.209Z,4.70
2017-11-23T16:08:13.875Z,4.20
2017-11-23T16:10:42.516Z,3.90
2017-11-23T16:13:11.187Z,5.03
2017-11-23T16:15:39.887Z,3.97
2017-11-23T16:18:09.074Z,4.47
2017-11-23T16:20:37.714Z,4.40
2017-11-23T16:23:06.397Z,4.80
2017-11-23T16:25:35.412Z,4.90
2017-11-23T16:28:03.949Z,5.70
2017-11-23T16:30:32.453Z,6.47
2017-11-23T16:33:00.944Z,5.80
2017-11-23T16:35:36.818Z,9.00
2017-11-23T16:38:15.080Z,7.60
2017-11-23T16:40:59.447Z,5.13
2017-11-23T16:46:31.520Z,5.23
2017-11-23T16:49:16.366Z,5.23
2017-11-23T16:51:53.900Z,4.67
2017-11-23T16:54:37.378Z,4.47
2017-11-23T16:57:20.961Z,4.80
2017-11-23T17:00:11.245Z,5.17
2017-11-23T17:02:55.324Z,5.90
2017-11-23T17:05:40.439Z,5.10
2017-11-23T17:08:20.303Z,4.17
2017-11-23T17:11:02.994Z,4.53
2017-11-23T17:13:37.213Z,5.00
2017-11-23T17:16:21.381Z,4.90
2017-11-23T17:19:06.506Z,5.10
2017-11-23T17:21:49.517Z,4.97
2017-11-23T17:24:31.921Z,5.00
2017-11-23T17:27:15.675Z,5.83
2017-11-23T17:29:52.377Z,4.70
2017-11-23T17:32:35.346Z,4.97
2017-11-23T17:35:15.737Z,5.20
2017-11-23T17:37:59.282Z,5.70
2017-11-23T17:40:43.709Z,4.67
2017-11-23T17:43:12.832Z,3.40
2017-11-23T17:45:41.532Z,3.23
2017-11-23T17:48:13.679Z,2.57
2017-11-23T17:50:46.824Z,2.23
2017-11-23T17:53:15.487Z,1.77
2017-11-23T17:55:44.155Z,1.90
2017-11-23T17:58:12.865Z,1.60
2017-11-23T18:00:41.537Z,1.40
2017-11-23T18:03:10.368Z,1.33
2017-11-23T18:05:39.017Z,1.60
2017-11-23T18:08:07.716Z,1.80
2017-11-23T18:10:36.360Z,1.10
2017-11-23T18:13:05.063Z,1.33
2017-11-23T18:15:33.598Z,1.23
2017-11-23T18:18:02.238Z,1.30
2017-11-23T18:20:30.927Z,1.30
2017-11-23T18:22:59.568Z,1.10
2017-11-23T18:25:28.271Z,1.43
2017-11-23T18:27:56.968Z,1.23
2017-11-23T18:30:25.665Z,1.70
2017-11-23T18:32:54.297Z,1.60
2017-11-23T18:35:22.928Z,1.37
2017-11-23T18:37:51.608Z,1.30
2017-11-23T18:40:20.286Z,1.10
2017-11-23T18:42:48.970Z,1.60
2017-11-23T18:45:17.721Z,1.93
2017-11-23T18:47:46.394Z,1.77
2017-11-23T18:50:15.106Z,2.00
2017-11-23T18:52:43.793Z,5.97
2017-11-23T18:55:13.283Z,4.57
2017-11-23T18:57:41.973Z,3.10
2017-11-23T19:00:10.697Z,3.17
2017-11-23T19:02:39.353Z,2.80
2017-11-23T19:05:08.028Z,3.20
2017-11-23T19:07:36.682Z,2.50
2017-11-23T19:10:05.390Z,2.73
2017-11-23T19:12:34.040Z,4.90
2017-11-23T19:15:02.684Z,3.50
2017-11-23T19:17:31.384Z,3.27
2017-11-23T19:20:00.040Z,3.60
2017-11-23T19:22:28.723Z,3.10
2017-11-23T19:24:57.403Z,2.60
2017-11-23T19:27:26.138Z,2.40
2017-11-23T19:29:54.810Z,2.40
2017-11-23T19:32:23.500Z,3.50
2017-11-23T19:34:52.183Z,3.47
2017-11-23T19:37:20.832Z,2.80
2017-11-23T19:39:49.583Z,3.33
2017-11-23T19:42:18.215Z,3.83
2017-11-23T19:44:46.885Z,2.57
2017-11-23T19:47:15.583Z,3.40
2017-11-23T19:49:44.231Z,2.27
2017-11-23T19:52:12.913Z,2.60
2017-11-23T19:54:41.582Z,2.27
2017-11-23T19:57:10.279Z,3.40
2017-11-23T19:59:38.985Z,2.27
2017-11-23T20:02:07.707Z,2.40
2017-11-23T20:04:36.352Z,2.20
2017-11-23T20:07:05.048Z,1.77
2017-11-23T20:09:33.745Z,2.77
2017-11-23T20:12:02.415Z,1.87
2017-11-23T20:14:31.100Z,2.20
2017-11-23T20:16:59.776Z,1.80
2017-11-23T20:19:28.465Z,2.30
2017-11-23T20:21:57.113Z,1.37
2017-11-23T20:24:25.837Z,2.80
2017-11-23T20:26:54.464Z,1.33
2017-11-23T20:29:23.111Z,1.10
2017-11-23T20:31:51.861Z,1.50
2017-11-23T20:34:20.504Z,2.07
2017-11-23T20:36:49.192Z,1.87
2017-11-23T20:39:17.868Z,1.70
2017-11-23T20:41:46.533Z,1.70
2017-11-23T20:44:15.225Z,1.80
2017-11-23T20:46:43.875Z,1.30
2017-11-23T20:49:12.571Z,1.53
2017-11-23T20:51:41.286Z,0.90
2017-11-23T20:54:09.939Z,1.23
2017-11-23T20:56:38.634Z,1.30
2017-11-23T20:59:07.277Z,1.30
2017-11-23T21:01:35.969Z,1.60
2017-11-23T21:04:04.648Z,1.57
2017-11-23T21:06:33.201Z,1.70
2017-11-23T21:09:01.729Z,1.40
2017-11-23T21:11:30.372Z,1.43
2017-11-23T21:13:59.060Z,1.43
2017-11-23T21:16:27.751Z,1.30
2017-11-23T21:18:56.431Z,0.97
2017-11-23T21:21:25.105Z,1.70
2017-11-23T21:23:53.788Z,1.23
2017-11-23T21:26:22.421Z,1.77
2017-11-23T21:28:51.108Z,1.27
2017-11-23T21:31:19.757Z,1.20
2017-11-23T21:33:48.444Z,1.20
2017-11-23T21:36:17.126Z,0.97
2017-11-23T21:38:45.800Z,1.70
2017-11-23T21:41:14.483Z,1.50
2017-11-23T21:43:43.178Z,2.10
2017-11-23T21:46:11.832Z,1.53
2017-11-23T21:48:40.534Z,1.17
2017-11-23T21:51:09.175Z,1.90
2017-11-23T21:53:37.813Z,1.33
2017-11-23T21:56:06.538Z,1.10
2017-11-23T21:58:35.177Z,1.30
2017-11-23T22:01:03.888Z,1.37
2017-11-23T22:03:38.065Z,1.63
2017-11-23T22:06:06.742Z,1.40
2017-11-23T22:08:45.013Z,1.77
2017-11-23T22:11:23.568Z,1.60
2017-11-23T22:16:53.210Z,1.67
2017-11-23T22:19:28.450Z,2.20
2017-11-23T22:21:58.804Z,1.63
2017-11-23T22:24:37.596Z,1.67
2017-11-23T22:27:19.135Z,1.03
2017-11-23T22:29:59.338Z,1.40
2017-11-23T22:32:44.115Z,1.77
2017-11-23T22:35:20.351Z,1.47
2017-11-23T22:37:48.857Z,1.33
2017-11-23T22:40:17.612Z,1.90
2017-11-23T22:42:59.994Z,2.13
2017-11-23T22:45:46.046Z,1.37
2017-11-23T22:48:32.536Z,1.37
2017-11-23T22:51:17.762Z,1.90
2017-11-23T22:54:09.717Z,1.03
2017-11-23T22:56:55.228Z,1.13
2017-11-23T22:59:40.975Z,1.57
2017-11-23T23:02:25.658Z,1.33
2017-11-23T23:05:08.295Z,1.23
2017-11-23T23:07:51.855Z,1.50
2017-11-23T23:10:37.031Z,1.57
2017-11-23T23:13:20.551Z,1.87
2017-11-23T23:16:07.543Z,1.53
2017-11-23T23:18:53.830Z,1.20
2017-11-23T23:21:40.263Z,1.07
2017-11-23T23:24:25.309Z,1.73
2017-11-23T23:27:13.829Z,1.20
2017-11-23T23:29:44.415Z,1.63
2017-11-23T23:32:13.152Z,1.03
2017-11-23T23:34:41.801Z,1.03
2017-11-23T23:37:10.505Z,1.93
2017-11-23T23:39:39.180Z,1.20
2017-11-23T23:42:07.884Z,1.70
2017-11-23T23:44:36.517Z,1.40
2017-11-23T23:47:05.167Z,1.10
2017-11-23T23:49:33.850Z,0.90
2017-11-23T23:52:02.480Z,1.23
2017-11-23T23:54:31.194Z,1.47
2017-11-23T23:56:59.865Z,1.13
2017-11-23T23:59:28.552Z,1.00
